Terminal Aerodrome Forecast
Issued by NWS Riverton, WY

Home | Current Version | Previous Version | Text Only | Print | Product List | Glossary On
Versions: 1 2 3 4 5 6 7 8 9 10 11 12 13
000
FTUS45 KRIW 261100
TAFRIW
TAF
KRIW 261132Z 2612/2712 02008KT P6SM FEW120
     FM270000 02014KT P6SM SKC
     FM270500 04007KT P6SM SKC=

USA.gov is the U.S. government's official web portal to all federal, state and local government web resources and services.